Kolding Vamdrup Airfield

EKVD · 南丹麦大区, 丹麦

罗盘
风向 的 风向 的 风向 到 风向 070° Kolding Vamdrup Airfield 1/19
风: 8 kt, 3 beaufort

5 kt

6 kt
改变
0 ft 1.000 2.000 3.000 4.000 5.000
N/A
METAR EKVD 032150Z AUTO 07008KT 040V100 //// ///////// 07/06 Q1009

METAR Kolding Vamdrup Airfield - EKVD

Kolding Vamdrup Airfield是,丹麦中的中型机场。 该机场位于纬度55,43580和经度9,33070。 该机场有2条跑道: 1/19 和 7/25. 本场的ICAO机场代码为EKVD。 机场在Kobenhavn FIR中。

该航空气象观测是针对Kolding Vamdrup Airfield在2024年3月3日 22:50, 当地时间进行的。

机场观察

风向为070°,速度为8 kt。 风向在040°和100°之间变化。

温度为7 °C,阵风为3 °C。 露点为6 °C,相对湿度为93%。 海平面上的气压为1009 hPa (QNH)。

白天

今天,太阳从07:06升起,在18:02降落。 这适用于Kolding Vamdrup Airfield,世界夏令时可能有所不同。 当地时间与世界标准时间之间的时差为+1 小时。 当前,没有夏令时有效。

公司介绍

我们没有关于这个机场的公司信息。

体会

到Vliegles.nl去找飞行课程,跳伞和其他飞行体验。 浏览页面,了解Kolding Vamdrup Airfield附近所有可用的活动。 你也可以使用搜索功能来寻找你所在地附近的特定飞行课程、跳伞或其他飞行体验。

跑道

Id 标题 侧风 逆风 侧风 %
1/19 017°-197° 6 kt 5 kt 80 %
7/25 076°-256° 8 kt 10 %

逆风成分最大的方向会被突出显示,并用于横风计算。 这并不一定意味着这个方向在使用。

乌云

0 ft

温度 & 天气

温度 7 °C
露点 6 °C
相对湿度 93%
风寒 3 °C
Kp-index 3 (0-9)

白天

日出
07:06 (7:55)
中午
12:34
日落
18:02

小工具

你想在你的网站上有一个关于Kolding Vamdrup Airfield的当前航空天气(METAR)的小部件吗?

显示HTML代码
?>